createdAt,value
2017-12-27T00:00:45.977Z,94.02
2017-12-27T00:03:19.094Z,94.14
2017-12-27T00:05:52.620Z,94.21
2017-12-27T00:08:25.810Z,94.16
2017-12-27T00:10:58.935Z,94.21
2017-12-27T00:16:36.382Z,94.53
2017-12-27T00:19:10.484Z,94.19
2017-12-27T00:21:44.111Z,94.22
2017-12-27T00:24:17.535Z,94.29
2017-12-27T00:26:50.650Z,94.29
2017-12-27T00:29:23.796Z,94.33
2017-12-27T00:31:50.845Z,94.19
2017-12-27T00:34:18.436Z,93.96
2017-12-27T00:36:46.015Z,94.03
2017-12-27T00:39:13.899Z,94.25
2017-12-27T00:41:41.464Z,94.26
2017-12-27T00:44:09.179Z,94.24
2017-12-27T00:46:36.836Z,94.33
2017-12-27T00:49:04.581Z,94.41
2017-12-27T00:51:32.191Z,94.41
2017-12-27T00:54:00.106Z,93.87
2017-12-27T00:56:27.726Z,93.73
2017-12-27T00:58:55.289Z,93.61
2017-12-27T01:01:22.929Z,93.79
2017-12-27T01:03:50.495Z,94.13
2017-12-27T01:06:18.044Z,94.19
2017-12-27T01:08:45.677Z,94.31
2017-12-27T01:11:14.152Z,94.47
2017-12-27T01:13:41.748Z,94.42
2017-12-27T01:16:09.370Z,94.65
2017-12-27T01:18:37.168Z,94.79
2017-12-27T01:21:04.989Z,94.70
2017-12-27T01:23:32.589Z,94.16
2017-12-27T01:26:00.178Z,93.75
2017-12-27T01:28:27.761Z,93.73
2017-12-27T01:30:55.344Z,93.92
2017-12-27T01:33:22.945Z,94.10
2017-12-27T01:35:50.538Z,94.10
2017-12-27T01:38:18.182Z,94.50
2017-12-27T01:40:45.740Z,94.38
2017-12-27T01:43:13.352Z,93.62
2017-12-27T01:45:41.016Z,93.52
2017-12-27T01:48:08.599Z,93.76
2017-12-27T01:50:36.218Z,93.85
2017-12-27T01:53:04.265Z,93.81
2017-12-27T01:55:31.860Z,93.92
2017-12-27T01:57:59.465Z,94.21
2017-12-27T02:00:27.108Z,94.44
2017-12-27T02:02:54.720Z,94.08
2017-12-27T02:05:22.336Z,93.67
2017-12-27T02:07:50.223Z,94.30
2017-12-27T02:10:17.822Z,94.33
2017-12-27T02:12:45.408Z,94.15
2017-12-27T02:15:13.483Z,93.78
2017-12-27T02:17:41.046Z,94.04
2017-12-27T02:20:08.638Z,94.05
2017-12-27T02:22:36.230Z,93.98
2017-12-27T02:25:04.078Z,94.20
2017-12-27T02:27:31.664Z,93.96
2017-12-27T02:29:59.303Z,93.19
2017-12-27T02:32:26.969Z,93.46
2017-12-27T02:34:54.529Z,93.69
2017-12-27T02:37:22.194Z,93.90
2017-12-27T02:43:00.776Z,94.35
2017-12-27T02:45:28.347Z,94.20
2017-12-27T02:47:55.953Z,94.46
2017-12-27T02:50:23.600Z,94.34
2017-12-27T02:52:51.168Z,94.33
2017-12-27T02:55:19.473Z,94.66
2017-12-27T02:57:47.501Z,94.51
2017-12-27T03:00:15.551Z,94.10
2017-12-27T03:02:43.108Z,93.86
2017-12-27T03:05:10.700Z,93.57
2017-12-27T03:07:38.310Z,92.70
2017-12-27T03:10:07.743Z,92.72
2017-12-27T03:12:35.356Z,93.20
2017-12-27T03:15:03.640Z,93.64
2017-12-27T03:17:33.164Z,93.52
2017-12-27T03:20:00.832Z,93.82
2017-12-27T03:22:28.403Z,93.80
2017-12-27T03:24:55.988Z,94.26
2017-12-27T03:27:23.948Z,94.39
2017-12-27T03:29:51.786Z,94.67
2017-12-27T03:32:19.490Z,94.56
2017-12-27T03:34:47.089Z,94.02
2017-12-27T03:37:15.561Z,93.82
2017-12-27T03:39:43.353Z,93.74
2017-12-27T03:42:12.265Z,93.02
2017-12-27T03:44:39.909Z,92.64
2017-12-27T03:47:07.538Z,93.04
2017-12-27T03:49:35.135Z,93.42
2017-12-27T03:52:02.732Z,93.42
2017-12-27T03:54:30.441Z,93.30
2017-12-27T03:56:59.874Z,93.57
2017-12-27T03:59:28.150Z,92.90
2017-12-27T04:01:55.706Z,93.12
2017-12-27T04:04:27.192Z,93.70
2017-12-27T04:06:54.766Z,93.93
2017-12-27T04:09:22.593Z,93.54
2017-12-27T04:11:50.167Z,93.45
2017-12-27T04:14:17.821Z,92.71
2017-12-27T04:16:45.424Z,93.21
2017-12-27T04:19:13.163Z,93.49
2017-12-27T04:21:41.111Z,93.79
2017-12-27T04:24:08.716Z,93.56
2017-12-27T04:26:36.288Z,94.16
2017-12-27T04:29:03.914Z,93.93
2017-12-27T04:31:32.213Z,93.95
2017-12-27T04:33:59.788Z,94.22
2017-12-27T04:36:27.389Z,93.64
2017-12-27T04:38:55.261Z,93.37
2017-12-27T04:41:22.850Z,93.62
2017-12-27T04:43:50.443Z,93.61
2017-12-27T04:46:18.054Z,93.73
2017-12-27T04:48:45.991Z,93.93
2017-12-27T04:51:13.936Z,94.34
2017-12-27T04:53:41.510Z,94.29
2017-12-27T04:56:09.160Z,93.71
2017-12-27T04:58:36.751Z,93.67
2017-12-27T05:01:04.313Z,93.93
2017-12-27T05:03:32.065Z,94.11
2017-12-27T05:05:59.659Z,94.37
2017-12-27T05:08:27.264Z,94.69
2017-12-27T05:10:54.911Z,94.57
2017-12-27T05:13:22.486Z,94.57
2017-12-27T05:15:50.069Z,93.98
2017-12-27T05:18:18.030Z,93.64
2017-12-27T05:20:45.609Z,93.81
2017-12-27T05:23:13.790Z,93.76
2017-12-27T05:25:41.380Z,93.04
2017-12-27T05:28:08.951Z,92.92
2017-12-27T05:30:36.513Z,92.79
2017-12-27T05:33:04.116Z,92.93
2017-12-27T05:35:31.892Z,93.04
2017-12-27T05:37:59.460Z,92.63
2017-12-27T05:40:27.114Z,93.17
2017-12-27T05:42:54.683Z,93.35
2017-12-27T05:45:24.638Z,93.43
2017-12-27T05:47:52.382Z,93.64
2017-12-27T05:50:24.072Z,93.51
2017-12-27T05:52:51.678Z,93.52
2017-12-27T05:55:19.300Z,93.69
2017-12-27T05:57:51.678Z,93.89
2017-12-27T06:00:19.272Z,94.34
2017-12-27T06:02:46.887Z,94.06
2017-12-27T06:05:14.584Z,94.02
2017-12-27T06:07:42.241Z,94.08
2017-12-27T06:10:09.818Z,93.99
2017-12-27T06:12:37.616Z,93.02
2017-12-27T06:15:05.222Z,92.76
2017-12-27T06:17:32.866Z,93.12
2017-12-27T06:20:00.457Z,93.12
2017-12-27T06:22:28.084Z,93.00
2017-12-27T06:24:55.671Z,93.24
2017-12-27T06:27:24.189Z,93.74
2017-12-27T06:29:51.773Z,94.01
2017-12-27T06:32:19.344Z,94.05
2017-12-27T06:34:46.900Z,93.53
2017-12-27T06:37:14.462Z,93.85
2017-12-27T06:39:42.064Z,93.89
2017-12-27T06:42:09.801Z,93.90
2017-12-27T06:44:37.378Z,93.92
2017-12-27T06:47:05.166Z,94.13
2017-12-27T06:49:32.754Z,94.10
2017-12-27T06:52:00.356Z,94.06
2017-12-27T06:54:27.937Z,94.17
2017-12-27T06:56:55.513Z,93.65
2017-12-27T06:59:23.142Z,93.55
2017-12-27T07:01:50.700Z,93.04
2017-12-27T07:04:18.281Z,93.54
2017-12-27T07:06:45.868Z,93.65
2017-12-27T07:09:13.894Z,93.92
2017-12-27T07:11:41.711Z,93.90
2017-12-27T07:14:09.350Z,93.92
2017-12-27T07:16:36.968Z,93.38
2017-12-27T07:19:04.679Z,92.58
2017-12-27T07:21:32.348Z,93.21
2017-12-27T07:23:59.914Z,93.42
2017-12-27T07:26:27.468Z,93.18
2017-12-27T07:28:55.142Z,93.73
2017-12-27T07:31:22.710Z,93.92
2017-12-27T07:33:50.359Z,94.06
2017-12-27T07:36:17.997Z,93.97
2017-12-27T07:38:45.636Z,93.65
2017-12-27T07:41:13.728Z,93.64
2017-12-27T07:43:41.304Z,93.77
2017-12-27T07:46:12.450Z,93.84
2017-12-27T07:48:41.256Z,92.97
2017-12-27T07:51:11.081Z,93.22
2017-12-27T07:53:38.841Z,93.34
2017-12-27T07:56:06.444Z,92.67
2017-12-27T07:58:35.225Z,92.82
2017-12-27T08:01:02.850Z,92.84
2017-12-27T08:03:30.540Z,93.14
2017-12-27T08:05:58.138Z,93.32
2017-12-27T08:08:25.730Z,93.28
2017-12-27T08:10:53.353Z,92.57
2017-12-27T08:13:20.960Z,92.44
2017-12-27T08:15:48.526Z,92.65
2017-12-27T08:18:16.144Z,92.65
2017-12-27T08:20:43.697Z,92.73
2017-12-27T08:23:11.933Z,92.89
2017-12-27T08:25:39.933Z,93.23
2017-12-27T08:28:07.520Z,93.63
2017-12-27T08:30:35.092Z,93.79
2017-12-27T08:33:02.681Z,93.88
2017-12-27T08:35:32.038Z,93.60
2017-12-27T08:37:59.797Z,93.66
2017-12-27T08:40:28.145Z,93.89
2017-12-27T08:42:56.451Z,94.07
2017-12-27T08:45:25.478Z,94.09
2017-12-27T08:47:53.098Z,94.27
2017-12-27T08:50:20.749Z,92.66
2017-12-27T08:52:48.336Z,92.02
2017-12-27T08:55:15.951Z,91.65
2017-12-27T08:57:43.515Z,92.20
2017-12-27T09:00:11.078Z,92.83
2017-12-27T09:02:38.674Z,92.36
2017-12-27T09:05:06.519Z,92.03
2017-12-27T09:07:34.140Z,92.37
2017-12-27T09:10:01.703Z,92.64
2017-12-27T09:12:29.276Z,92.44
2017-12-27T09:14:56.836Z,92.03
2017-12-27T09:17:24.667Z,91.59
2017-12-27T09:19:52.220Z,92.08
2017-12-27T09:22:19.829Z,91.69
2017-12-27T09:24:47.395Z,91.54
2017-12-27T09:27:14.986Z,91.58
2017-12-27T09:29:42.580Z,91.45
2017-12-27T09:32:10.153Z,91.65
2017-12-27T09:34:37.728Z,90.96
2017-12-27T09:37:05.489Z,89.99
2017-12-27T09:39:34.061Z,91.11
2017-12-27T09:42:01.641Z,90.01
2017-12-27T09:44:29.229Z,89.98
2017-12-27T09:46:56.805Z,90.38
2017-12-27T09:49:24.754Z,88.75
2017-12-27T09:51:52.345Z,88.84
2017-12-27T09:54:19.923Z,88.45
2017-12-27T09:56:47.480Z,88.54
2017-12-27T09:59:15.067Z,89.09
2017-12-27T10:01:44.277Z,88.56
2017-12-27T10:04:11.912Z,87.90
2017-12-27T10:06:39.491Z,87.67
2017-12-27T10:09:07.221Z,87.47
2017-12-27T10:11:34.802Z,87.87
2017-12-27T10:14:02.371Z,88.01
2017-12-27T10:16:30.115Z,89.05
2017-12-27T10:18:57.685Z,88.02
2017-12-27T10:21:25.291Z,87.96
2017-12-27T10:23:52.960Z,88.73
2017-12-27T10:26:20.578Z,89.01
2017-12-27T10:28:48.121Z,87.76
2017-12-27T10:31:15.673Z,87.89
2017-12-27T10:33:43.239Z,88.54
2017-12-27T10:36:11.253Z,87.84
2017-12-27T10:38:38.901Z,88.08
2017-12-27T10:41:06.635Z,87.68
2017-12-27T10:43:34.179Z,87.36
2017-12-27T10:46:01.741Z,86.94
2017-12-27T10:48:29.617Z,86.63
2017-12-27T10:50:57.194Z,86.28
2017-12-27T10:53:28.547Z,86.65
2017-12-27T10:55:56.140Z,86.47
2017-12-27T10:58:24.778Z,85.98
2017-12-27T11:00:52.401Z,85.44
2017-12-27T11:03:20.973Z,84.56
2017-12-27T11:05:48.590Z,84.10
2017-12-27T11:08:16.138Z,84.67
2017-12-27T11:10:43.706Z,85.12
2017-12-27T11:13:12.718Z,84.67
2017-12-27T11:15:40.288Z,84.95
2017-12-27T11:18:07.896Z,83.33
2017-12-27T11:20:35.463Z,83.40
2017-12-27T11:23:03.072Z,83.71
2017-12-27T11:25:30.677Z,83.34
2017-12-27T11:27:58.224Z,84.02
2017-12-27T11:30:25.795Z,85.38
2017-12-27T11:32:53.367Z,83.46
2017-12-27T11:35:20.933Z,83.17
2017-12-27T11:37:48.482Z,82.33
2017-12-27T11:40:16.058Z,83.46
2017-12-27T11:42:45.543Z,83.93
2017-12-27T11:45:13.564Z,83.79
2017-12-27T11:47:41.318Z,83.15
2017-12-27T11:50:08.879Z,82.90
2017-12-27T11:52:38.279Z,84.42
2017-12-27T11:55:06.194Z,83.85
2017-12-27T11:57:33.769Z,84.32
2017-12-27T12:00:01.309Z,85.11
2017-12-27T12:02:28.908Z,84.78
2017-12-27T12:04:56.459Z,82.92
2017-12-27T12:07:24.807Z,83.98
2017-12-27T12:09:52.581Z,83.83
2017-12-27T12:12:20.207Z,83.51
2017-12-27T12:14:47.757Z,83.79
2017-12-27T12:17:15.318Z,83.18
2017-12-27T12:19:42.861Z,84.28
2017-12-27T12:22:10.524Z,85.32
2017-12-27T12:24:38.081Z,85.72
2017-12-27T12:27:05.948Z,84.42
2017-12-27T12:29:34.402Z,83.75
2017-12-27T12:32:01.942Z,83.41
2017-12-27T12:34:29.514Z,83.01
2017-12-27T12:36:57.085Z,81.85
2017-12-27T12:39:24.928Z,82.46
2017-12-27T12:41:52.484Z,82.88
2017-12-27T12:44:20.031Z,83.92
2017-12-27T12:46:47.581Z,85.05
2017-12-27T12:49:15.181Z,85.52
2017-12-27T12:51:42.733Z,86.40
2017-12-27T12:54:10.396Z,85.24
2017-12-27T12:56:38.021Z,84.63
2017-12-27T12:59:06.123Z,85.14
2017-12-27T13:01:33.710Z,85.13
2017-12-27T13:04:01.292Z,85.56
2017-12-27T13:06:28.851Z,86.04
2017-12-27T13:08:56.443Z,86.11
2017-12-27T13:11:25.262Z,86.72
2017-12-27T13:13:52.860Z,86.61
2017-12-27T13:16:20.407Z,85.12
2017-12-27T13:18:48.005Z,84.13
2017-12-27T13:21:15.576Z,84.25
2017-12-27T13:23:43.125Z,83.42
2017-12-27T13:26:10.810Z,83.58
2017-12-27T13:28:38.483Z,83.22
2017-12-27T13:31:06.485Z,83.81
2017-12-27T13:33:34.146Z,85.03
2017-12-27T13:36:01.823Z,85.43
2017-12-27T13:38:29.467Z,85.44
2017-12-27T13:40:57.063Z,84.84
2017-12-27T13:43:24.663Z,84.66
2017-12-27T13:45:53.143Z,84.09
2017-12-27T13:48:20.824Z,83.39
2017-12-27T13:50:48.418Z,81.61
2017-12-27T13:53:15.984Z,80.45
2017-12-27T13:55:43.576Z,80.70
2017-12-27T13:58:11.262Z,79.74
2017-12-27T14:00:38.838Z,79.55
2017-12-27T14:03:06.484Z,79.93
2017-12-27T14:05:34.619Z,79.19
2017-12-27T14:08:02.194Z,79.96
2017-12-27T14:10:30.172Z,79.87
2017-12-27T14:12:57.814Z,80.16
2017-12-27T14:15:25.606Z,81.81
2017-12-27T14:17:53.170Z,83.88
2017-12-27T14:20:20.773Z,84.80
2017-12-27T14:22:48.407Z,84.89
2017-12-27T14:25:15.983Z,85.93
2017-12-27T14:27:43.648Z,85.64
2017-12-27T14:30:11.317Z,85.90
2017-12-27T14:32:38.885Z,86.11
2017-12-27T14:35:07.282Z,86.15
2017-12-27T14:37:34.890Z,86.41
2017-12-27T14:40:02.614Z,87.06
2017-12-27T14:42:30.215Z,87.71
2017-12-27T14:44:57.810Z,87.77
2017-12-27T14:47:26.752Z,88.30
2017-12-27T14:49:54.354Z,88.45
2017-12-27T14:52:22.897Z,88.73
2017-12-27T14:54:50.467Z,89.32
2017-12-27T14:57:18.086Z,89.80
2017-12-27T14:59:45.663Z,90.26
2017-12-27T15:02:13.354Z,90.22
2017-12-27T15:04:40.929Z,89.99
2017-12-27T15:07:12.272Z,90.15
2017-12-27T15:09:40.126Z,90.54
2017-12-27T15:12:07.684Z,90.61
2017-12-27T15:14:35.562Z,91.10
2017-12-27T15:17:03.142Z,91.56
2017-12-27T15:19:31.126Z,91.61
2017-12-27T15:22:02.154Z,91.56
2017-12-27T15:24:29.790Z,91.59
2017-12-27T15:26:57.386Z,91.62
2017-12-27T15:29:26.391Z,91.74
2017-12-27T15:31:53.979Z,91.81
2017-12-27T15:34:21.627Z,91.95
2017-12-27T15:36:49.675Z,91.96
2017-12-27T15:39:19.110Z,91.85
2017-12-27T15:41:46.700Z,92.18
2017-12-27T15:44:15.538Z,92.23
2017-12-27T15:46:43.462Z,92.08
2017-12-27T15:49:12.232Z,92.34
2017-12-27T15:51:39.919Z,92.46
2017-12-27T15:54:07.617Z,92.45
2017-12-27T15:56:35.191Z,92.57
2017-12-27T15:59:02.781Z,92.77
2017-12-27T16:01:30.423Z,92.68
2017-12-27T16:03:58.018Z,92.75
2017-12-27T16:06:25.555Z,92.80
2017-12-27T16:08:53.213Z,92.62
2017-12-27T16:11:20.817Z,92.16
2017-12-27T16:13:48.403Z,92.25
2017-12-27T16:16:16.103Z,92.00
2017-12-27T16:18:43.685Z,92.06
2017-12-27T16:21:12.978Z,92.24
2017-12-27T16:23:40.623Z,92.55
2017-12-27T16:26:08.215Z,92.49
2017-12-27T16:28:35.794Z,92.32
2017-12-27T16:31:03.389Z,92.07
2017-12-27T16:33:30.960Z,91.79
2017-12-27T16:35:58.505Z,91.99
2017-12-27T16:38:26.108Z,92.29
2017-12-27T16:40:53.720Z,92.55
2017-12-27T16:43:21.388Z,92.41
2017-12-27T16:45:49.052Z,92.48
2017-12-27T16:48:16.703Z,92.68
2017-12-27T16:50:44.305Z,92.39
2017-12-27T16:53:13.084Z,92.57
2017-12-27T16:55:40.742Z,92.41
2017-12-27T16:58:08.771Z,92.27
2017-12-27T17:00:36.346Z,92.21
2017-12-27T17:03:03.952Z,91.71
2017-12-27T17:05:32.589Z,91.48
2017-12-27T17:08:00.150Z,91.63
2017-12-27T17:10:28.062Z,92.35
2017-12-27T17:15:47.570Z,92.13
2017-12-27T17:18:15.543Z,92.16
2017-12-27T17:20:43.137Z,92.38
2017-12-27T17:23:11.490Z,92.27
2017-12-27T17:25:39.100Z,92.31
2017-12-27T17:28:06.695Z,92.15
2017-12-27T17:30:34.317Z,92.11
2017-12-27T17:33:01.927Z,91.41
2017-12-27T17:35:29.544Z,90.96
2017-12-27T17:37:57.146Z,90.07
2017-12-27T17:40:24.797Z,89.97
2017-12-27T17:42:52.452Z,90.09
2017-12-27T17:45:20.026Z,90.49
2017-12-27T17:47:47.672Z,90.52
2017-12-27T17:50:15.409Z,90.52
2017-12-27T17:52:43.004Z,90.73
2017-12-27T17:55:11.631Z,90.92
2017-12-27T17:57:39.273Z,90.71
2017-12-27T18:00:07.119Z,90.52
2017-12-27T18:02:34.680Z,90.66
2017-12-27T18:05:02.275Z,90.67
2017-12-27T18:07:29.908Z,91.48
2017-12-27T18:09:57.527Z,91.80
2017-12-27T18:12:25.105Z,92.03
2017-12-27T18:14:52.700Z,92.58
2017-12-27T18:17:20.308Z,92.37
2017-12-27T18:19:47.870Z,91.74
2017-12-27T18:22:15.636Z,91.48
2017-12-27T18:24:44.073Z,91.06
2017-12-27T18:27:13.213Z,91.25
2017-12-27T18:29:40.776Z,91.83
2017-12-27T18:32:08.515Z,91.89
2017-12-27T18:34:36.087Z,92.42
2017-12-27T18:37:04.007Z,92.37
2017-12-27T18:39:31.686Z,92.64
2017-12-27T18:41:59.269Z,92.79
2017-12-27T18:44:26.883Z,92.27
2017-12-27T18:46:54.476Z,92.28
2017-12-27T18:49:22.054Z,91.56
2017-12-27T18:51:49.620Z,91.61
2017-12-27T18:54:17.357Z,90.00
2017-12-27T18:56:44.937Z,89.97
2017-12-27T18:59:12.773Z,90.17
2017-12-27T19:01:42.263Z,90.52
2017-12-27T19:04:10.640Z,90.96
2017-12-27T19:06:38.198Z,91.02
2017-12-27T19:09:06.173Z,90.85
2017-12-27T19:11:34.136Z,90.94
2017-12-27T19:14:01.688Z,90.63
2017-12-27T19:16:29.376Z,89.73
2017-12-27T19:18:56.946Z,89.84
2017-12-27T19:21:24.509Z,90.00
2017-12-27T19:23:52.111Z,89.63
2017-12-27T19:26:19.660Z,90.04
2017-12-27T19:28:47.279Z,89.80
2017-12-27T19:31:15.567Z,89.31
2017-12-27T19:33:43.666Z,88.85
2017-12-27T19:36:11.224Z,88.45
2017-12-27T19:38:38.835Z,88.55
2017-12-27T19:41:06.529Z,89.37
2017-12-27T19:43:34.081Z,89.88
2017-12-27T19:46:01.688Z,89.37
2017-12-27T19:48:29.349Z,88.99
2017-12-27T19:50:56.944Z,89.16
2017-12-27T19:53:25.079Z,89.43
2017-12-27T19:55:52.643Z,90.12
2017-12-27T19:58:20.267Z,90.92
2017-12-27T20:00:48.081Z,90.35
2017-12-27T20:03:15.662Z,89.89
2017-12-27T20:05:43.216Z,89.53
2017-12-27T20:08:10.849Z,89.40
2017-12-27T20:10:38.416Z,90.21
2017-12-27T20:13:06.063Z,90.33
2017-12-27T20:15:52.853Z,90.61
2017-12-27T20:18:21.172Z,90.76
2017-12-27T20:20:48.748Z,90.84
2017-12-27T20:23:16.400Z,90.90
2017-12-27T20:25:43.984Z,91.15
2017-12-27T20:28:11.568Z,91.53
2017-12-27T20:30:39.108Z,91.14
2017-12-27T20:33:06.903Z,90.66
2017-12-27T20:35:34.522Z,90.56
2017-12-27T20:38:02.142Z,90.43
2017-12-27T20:40:30.480Z,90.81
2017-12-27T20:42:58.104Z,90.31
2017-12-27T20:45:25.652Z,91.10
2017-12-27T20:47:53.240Z,90.70
2017-12-27T20:50:20.789Z,89.91
2017-12-27T20:52:48.984Z,89.47
2017-12-27T20:55:16.597Z,90.18
2017-12-27T20:57:44.149Z,90.05
2017-12-27T21:00:11.697Z,90.43
2017-12-27T21:02:39.290Z,89.83
2017-12-27T21:05:06.859Z,90.51
2017-12-27T21:07:34.388Z,90.81
2017-12-27T21:10:01.961Z,90.56
2017-12-27T21:12:29.521Z,90.88
2017-12-27T21:14:57.114Z,91.62
2017-12-27T21:17:24.677Z,91.91
2017-12-27T21:19:52.228Z,91.76
2017-12-27T21:22:20.506Z,92.29
2017-12-27T21:24:48.060Z,94.42
2017-12-27T21:27:15.622Z,94.19
2017-12-27T21:29:43.188Z,92.98
2017-12-27T21:32:10.757Z,92.51
2017-12-27T21:34:38.343Z,92.94
2017-12-27T21:37:05.962Z,91.79
2017-12-27T21:39:33.533Z,92.33
2017-12-27T21:42:01.079Z,92.60
2017-12-27T21:44:28.663Z,92.60
2017-12-27T21:46:56.221Z,93.17
2017-12-27T21:49:29.414Z,92.98
2017-12-27T21:51:56.961Z,92.49
2017-12-27T21:54:24.962Z,92.83
2017-12-27T21:56:52.611Z,92.88
2017-12-27T21:59:25.812Z,93.46
2017-12-27T22:01:53.393Z,93.20
2017-12-27T22:04:20.934Z,93.93
2017-12-27T22:06:48.525Z,93.92
2017-12-27T22:09:16.110Z,93.37
2017-12-27T22:11:43.648Z,93.84
2017-12-27T22:14:11.198Z,95.04
2017-12-27T22:16:38.846Z,94.85
2017-12-27T22:19:06.441Z,94.72
2017-12-27T22:21:34.022Z,94.12
2017-12-27T22:24:01.611Z,93.86
2017-12-27T22:26:29.175Z,94.12
2017-12-27T22:28:56.727Z,94.21
2017-12-27T22:31:24.317Z,95.03
2017-12-27T22:33:51.875Z,95.00
2017-12-27T22:36:19.477Z,94.40
2017-12-27T22:38:47.081Z,94.41
2017-12-27T22:41:14.636Z,94.57
2017-12-27T22:43:42.213Z,95.14
2017-12-27T22:46:09.827Z,94.94
2017-12-27T22:48:37.406Z,95.13
2017-12-27T22:51:05.107Z,95.27
2017-12-27T22:53:32.697Z,95.02
2017-12-27T22:56:00.276Z,95.19
2017-12-27T22:58:27.868Z,95.14
2017-12-27T23:00:55.503Z,95.31
2017-12-27T23:03:23.109Z,94.99
2017-12-27T23:05:50.664Z,95.00
2017-12-27T23:08:18.387Z,95.25
2017-12-27T23:10:47.528Z,95.38
2017-12-27T23:13:15.308Z,95.29
2017-12-27T23:15:42.880Z,95.28
2017-12-27T23:18:10.459Z,95.31
2017-12-27T23:20:37.999Z,95.23
2017-12-27T23:23:07.247Z,95.30
2017-12-27T23:25:34.851Z,95.16
2017-12-27T23:28:02.416Z,95.49
2017-12-27T23:30:30.051Z,94.67
2017-12-27T23:32:57.832Z,94.26
2017-12-27T23:35:25.372Z,94.46
2017-12-27T23:37:52.923Z,94.70
2017-12-27T23:40:20.520Z,94.03
2017-12-27T23:42:48.132Z,94.19
2017-12-27T23:45:15.699Z,93.82
2017-12-27T23:47:43.277Z,94.02
2017-12-27T23:50:10.870Z,93.64
2017-12-27T23:52:38.445Z,93.59
2017-12-27T23:55:06.008Z,93.56
2017-12-27T23:57:33.727Z,93.22
